sensor_id;sensor_type;location;lat;lon;timestamp;P1;durP1;ratioP1;P2;durP2;ratioP2
13493;SDS011;6819;50.886;4.332;2023-09-07T00:00:12;6.70;;;4.95;;
13493;SDS011;6819;50.886;4.332;2023-09-07T00:02:38;7.20;;;4.93;;
13493;SDS011;6819;50.886;4.332;2023-09-07T00:05:05;9.75;;;5.22;;
13493;SDS011;6819;50.886;4.332;2023-09-07T00:07:32;8.70;;;5.18;;
13493;SDS011;6819;50.886;4.332;2023-09-07T00:09:58;8.50;;;5.10;;
13493;SDS011;6819;50.886;4.332;2023-09-07T00:12:24;8.60;;;5.30;;
13493;SDS011;6819;50.886;4.332;2023-09-07T00:14:50;16.00;;;5.20;;
13493;SDS011;6819;50.886;4.332;2023-09-07T00:17:16;12.57;;;4.88;;
13493;SDS011;6819;50.886;4.332;2023-09-07T00:19:42;6.85;;;4.70;;
13493;SDS011;6819;50.886;4.332;2023-09-07T00:22:11;7.28;;;4.70;;
13493;SDS011;6819;50.886;4.332;2023-09-07T00:24:37;7.03;;;5.05;;
13493;SDS011;6819;50.886;4.332;2023-09-07T00:27:03;8.27;;;5.22;;
13493;SDS011;6819;50.886;4.332;2023-09-07T00:29:31;13.50;;;5.22;;
13493;SDS011;6819;50.886;4.332;2023-09-07T00:31:57;6.43;;;4.47;;
13493;SDS011;6819;50.886;4.332;2023-09-07T00:34:23;6.45;;;4.65;;
13493;SDS011;6819;50.886;4.332;2023-09-07T00:36:49;7.75;;;5.00;;
13493;SDS011;6819;50.886;4.332;2023-09-07T00:39:15;6.50;;;4.70;;
13493;SDS011;6819;50.886;4.332;2023-09-07T00:41:41;9.27;;;5.28;;
13493;SDS011;6819;50.886;4.332;2023-09-07T00:44:07;7.05;;;4.78;;
13493;SDS011;6819;50.886;4.332;2023-09-07T00:46:33;6.68;;;4.65;;
13493;SDS011;6819;50.886;4.332;2023-09-07T00:48:59;10.73;;;5.28;;
13493;SDS011;6819;50.886;4.332;2023-09-07T00:51:26;7.93;;;4.80;;
13493;SDS011;6819;50.886;4.332;2023-09-07T00:53:52;9.02;;;4.95;;
13493;SDS011;6819;50.886;4.332;2023-09-07T00:56:18;7.18;;;5.00;;
13493;SDS011;6819;50.886;4.332;2023-09-07T00:58:45;9.27;;;4.53;;
13493;SDS011;6819;50.886;4.332;2023-09-07T01:01:11;8.48;;;4.55;;
13493;SDS011;6819;50.886;4.332;2023-09-07T01:03:37;9.70;;;4.80;;
13493;SDS011;6819;50.886;4.332;2023-09-07T01:08:35;7.38;;;4.78;;
13493;SDS011;6819;50.886;4.332;2023-09-07T01:11:01;6.95;;;4.40;;
13493;SDS011;6819;50.886;4.332;2023-09-07T01:13:28;6.85;;;4.95;;
13493;SDS011;6819;50.886;4.332;2023-09-07T01:15:54;12.20;;;4.80;;
13493;SDS011;6819;50.886;4.332;2023-09-07T01:18:20;10.32;;;4.88;;
13493;SDS011;6819;50.886;4.332;2023-09-07T01:20:46;9.38;;;4.68;;
13493;SDS011;6819;50.886;4.332;2023-09-07T01:23:12;8.25;;;4.68;;
13493;SDS011;6819;50.886;4.332;2023-09-07T01:25:40;9.45;;;5.35;;
13493;SDS011;6819;50.886;4.332;2023-09-07T01:28:06;12.23;;;5.47;;
13493;SDS011;6819;50.886;4.332;2023-09-07T01:30:34;7.10;;;4.85;;
13493;SDS011;6819;50.886;4.332;2023-09-07T01:33:00;10.85;;;4.32;;
13493;SDS011;6819;50.886;4.332;2023-09-07T01:35:28;7.57;;;4.45;;
13493;SDS011;6819;50.886;4.332;2023-09-07T01:37:54;9.25;;;4.85;;
13493;SDS011;6819;50.886;4.332;2023-09-07T01:40:20;10.10;;;5.18;;
13493;SDS011;6819;50.886;4.332;2023-09-07T01:42:47;10.57;;;5.20;;
13493;SDS011;6819;50.886;4.332;2023-09-07T01:45:13;9.15;;;4.82;;
13493;SDS011;6819;50.886;4.332;2023-09-07T01:47:39;8.48;;;4.70;;
13493;SDS011;6819;50.886;4.332;2023-09-07T01:50:05;7.80;;;4.65;;
13493;SDS011;6819;50.886;4.332;2023-09-07T01:52:31;8.93;;;4.93;;
13493;SDS011;6819;50.886;4.332;2023-09-07T01:54:57;5.97;;;4.10;;
13493;SDS011;6819;50.886;4.332;2023-09-07T01:57:23;9.43;;;5.28;;
13493;SDS011;6819;50.886;4.332;2023-09-07T01:59:49;9.93;;;4.95;;
13493;SDS011;6819;50.886;4.332;2023-09-07T02:02:15;8.80;;;4.32;;
13493;SDS011;6819;50.886;4.332;2023-09-07T02:04:41;6.55;;;4.57;;
13493;SDS011;6819;50.886;4.332;2023-09-07T02:07:10;6.03;;;4.38;;
13493;SDS011;6819;50.886;4.332;2023-09-07T02:09:36;8.70;;;4.90;;
13493;SDS011;6819;50.886;4.332;2023-09-07T02:12:03;7.25;;;4.63;;
13493;SDS011;6819;50.886;4.332;2023-09-07T02:14:30;8.35;;;4.55;;
13493;SDS011;6819;50.886;4.332;2023-09-07T02:16:56;8.63;;;4.90;;
13493;SDS011;6819;50.886;4.332;2023-09-07T02:19:22;8.85;;;4.80;;
13493;SDS011;6819;50.886;4.332;2023-09-07T02:21:49;8.13;;;4.80;;
13493;SDS011;6819;50.886;4.332;2023-09-07T02:24:16;8.70;;;4.68;;
13493;SDS011;6819;50.886;4.332;2023-09-07T02:26:42;9.82;;;5.40;;
13493;SDS011;6819;50.886;4.332;2023-09-07T02:29:11;5.85;;;4.35;;
13493;SDS011;6819;50.886;4.332;2023-09-07T02:31:37;10.20;;;4.70;;
13493;SDS011;6819;50.886;4.332;2023-09-07T02:34:03;7.97;;;4.40;;
13493;SDS011;6819;50.886;4.332;2023-09-07T02:36:29;6.03;;;4.20;;
13493;SDS011;6819;50.886;4.332;2023-09-07T02:38:55;10.43;;;4.80;;
13493;SDS011;6819;50.886;4.332;2023-09-07T02:41:21;7.57;;;4.57;;
13493;SDS011;6819;50.886;4.332;2023-09-07T02:43:47;6.53;;;4.43;;
13493;SDS011;6819;50.886;4.332;2023-09-07T02:46:13;7.20;;;4.75;;
13493;SDS011;6819;50.886;4.332;2023-09-07T02:48:39;7.60;;;4.75;;
13493;SDS011;6819;50.886;4.332;2023-09-07T02:51:05;6.75;;;4.75;;
13493;SDS011;6819;50.886;4.332;2023-09-07T02:53:31;8.20;;;4.35;;
13493;SDS011;6819;50.886;4.332;2023-09-07T02:55:57;10.90;;;4.57;;
13493;SDS011;6819;50.886;4.332;2023-09-07T02:58:23;7.53;;;4.65;;
13493;SDS011;6819;50.886;4.332;2023-09-07T03:00:49;10.23;;;5.07;;
13493;SDS011;6819;50.886;4.332;2023-09-07T03:03:15;11.70;;;4.57;;
13493;SDS011;6819;50.886;4.332;2023-09-07T03:05:42;7.68;;;4.20;;
13493;SDS011;6819;50.886;4.332;2023-09-07T03:08:08;9.43;;;4.88;;
13493;SDS011;6819;50.886;4.332;2023-09-07T03:10:35;6.75;;;4.43;;
13493;SDS011;6819;50.886;4.332;2023-09-07T03:13:02;12.18;;;4.53;;
13493;SDS011;6819;50.886;4.332;2023-09-07T03:15:28;8.90;;;4.65;;
13493;SDS011;6819;50.886;4.332;2023-09-07T03:17:54;6.90;;;4.50;;
13493;SDS011;6819;50.886;4.332;2023-09-07T03:20:20;8.10;;;5.47;;
13493;SDS011;6819;50.886;4.332;2023-09-07T03:22:47;6.78;;;3.95;;
13493;SDS011;6819;50.886;4.332;2023-09-07T03:25:13;9.93;;;5.03;;
13493;SDS011;6819;50.886;4.332;2023-09-07T03:27:39;7.40;;;4.93;;
13493;SDS011;6819;50.886;4.332;2023-09-07T03:30:05;8.07;;;4.57;;
13493;SDS011;6819;50.886;4.332;2023-09-07T03:32:33;8.25;;;5.22;;
13493;SDS011;6819;50.886;4.332;2023-09-07T03:34:59;7.82;;;5.05;;
13493;SDS011;6819;50.886;4.332;2023-09-07T03:37:29;7.25;;;4.32;;
13493;SDS011;6819;50.886;4.332;2023-09-07T03:39:55;7.40;;;4.90;;
13493;SDS011;6819;50.886;4.332;2023-09-07T03:42:22;7.00;;;4.63;;
13493;SDS011;6819;50.886;4.332;2023-09-07T03:44:48;7.57;;;4.90;;
13493;SDS011;6819;50.886;4.332;2023-09-07T03:47:14;7.07;;;4.57;;
13493;SDS011;6819;50.886;4.332;2023-09-07T03:49:40;9.57;;;5.25;;
13493;SDS011;6819;50.886;4.332;2023-09-07T03:52:06;7.13;;;4.78;;
13493;SDS011;6819;50.886;4.332;2023-09-07T03:54:33;8.55;;;5.30;;
13493;SDS011;6819;50.886;4.332;2023-09-07T03:56:59;10.85;;;4.82;;
13493;SDS011;6819;50.886;4.332;2023-09-07T03:59:26;8.30;;;5.22;;
13493;SDS011;6819;50.886;4.332;2023-09-07T04:01:52;9.43;;;5.40;;
13493;SDS011;6819;50.886;4.332;2023-09-07T04:04:19;8.57;;;5.50;;
13493;SDS011;6819;50.886;4.332;2023-09-07T04:06:48;11.13;;;4.88;;
13493;SDS011;6819;50.886;4.332;2023-09-07T04:09:14;11.05;;;5.22;;
13493;SDS011;6819;50.886;4.332;2023-09-07T04:11:40;17.08;;;6.20;;
13493;SDS011;6819;50.886;4.332;2023-09-07T04:14:06;8.00;;;4.95;;
13493;SDS011;6819;50.886;4.332;2023-09-07T04:16:32;8.20;;;5.32;;
13493;SDS011;6819;50.886;4.332;2023-09-07T04:18:58;8.90;;;5.32;;
13493;SDS011;6819;50.886;4.332;2023-09-07T04:21:24;7.93;;;4.95;;
13493;SDS011;6819;50.886;4.332;2023-09-07T04:23:50;10.43;;;5.43;;
13493;SDS011;6819;50.886;4.332;2023-09-07T04:26:16;7.22;;;5.20;;
13493;SDS011;6819;50.886;4.332;2023-09-07T04:28:42;8.82;;;5.03;;
13493;SDS011;6819;50.886;4.332;2023-09-07T04:31:08;8.45;;;5.60;;
13493;SDS011;6819;50.886;4.332;2023-09-07T04:33:34;11.65;;;5.10;;
13493;SDS011;6819;50.886;4.332;2023-09-07T04:36:10;11.18;;;5.50;;
13493;SDS011;6819;50.886;4.332;2023-09-07T04:38:37;10.60;;;5.97;;
13493;SDS011;6819;50.886;4.332;2023-09-07T04:41:09;7.65;;;4.90;;
13493;SDS011;6819;50.886;4.332;2023-09-07T04:43:36;8.38;;;5.70;;
13493;SDS011;6819;50.886;4.332;2023-09-07T04:46:02;9.95;;;4.78;;
13493;SDS011;6819;50.886;4.332;2023-09-07T04:48:28;11.02;;;6.10;;
13493;SDS011;6819;50.886;4.332;2023-09-07T04:50:58;8.32;;;5.63;;
13493;SDS011;6819;50.886;4.332;2023-09-07T04:53:24;11.68;;;6.20;;
13493;SDS011;6819;50.886;4.332;2023-09-07T04:55:50;8.90;;;5.95;;
13493;SDS011;6819;50.886;4.332;2023-09-07T04:58:16;10.18;;;5.72;;
13493;SDS011;6819;50.886;4.332;2023-09-07T05:00:42;9.70;;;5.65;;
13493;SDS011;6819;50.886;4.332;2023-09-07T05:03:08;12.25;;;6.70;;
13493;SDS011;6819;50.886;4.332;2023-09-07T05:05:34;17.33;;;5.50;;
13493;SDS011;6819;50.886;4.332;2023-09-07T05:08:00;8.07;;;5.30;;
13493;SDS011;6819;50.886;4.332;2023-09-07T05:10:26;6.82;;;3.90;;
13493;SDS011;6819;50.886;4.332;2023-09-07T05:12:52;7.32;;;4.63;;
13493;SDS011;6819;50.886;4.332;2023-09-07T05:15:18;10.50;;;5.10;;
13493;SDS011;6819;50.886;4.332;2023-09-07T05:17:44;9.70;;;5.45;;
13493;SDS011;6819;50.886;4.332;2023-09-07T05:20:10;9.48;;;5.50;;
13493;SDS011;6819;50.886;4.332;2023-09-07T05:22:37;12.68;;;5.53;;
13493;SDS011;6819;50.886;4.332;2023-09-07T05:25:04;9.25;;;5.38;;
13493;SDS011;6819;50.886;4.332;2023-09-07T05:27:31;12.10;;;6.60;;
13493;SDS011;6819;50.886;4.332;2023-09-07T05:29:57;14.20;;;5.80;;
13493;SDS011;6819;50.886;4.332;2023-09-07T05:32:23;10.07;;;6.07;;
13493;SDS011;6819;50.886;4.332;2023-09-07T05:34:49;12.10;;;6.03;;
13493;SDS011;6819;50.886;4.332;2023-09-07T05:37:15;7.43;;;5.30;;
13493;SDS011;6819;50.886;4.332;2023-09-07T05:39:41;8.38;;;5.80;;
13493;SDS011;6819;50.886;4.332;2023-09-07T05:42:07;16.77;;;6.35;;
13493;SDS011;6819;50.886;4.332;2023-09-07T05:44:33;10.32;;;5.53;;
13493;SDS011;6819;50.886;4.332;2023-09-07T05:46:59;13.82;;;5.88;;
13493;SDS011;6819;50.886;4.332;2023-09-07T05:49:27;10.45;;;6.40;;
13493;SDS011;6819;50.886;4.332;2023-09-07T05:51:53;12.27;;;6.15;;
13493;SDS011;6819;50.886;4.332;2023-09-07T05:54:19;10.07;;;5.65;;
13493;SDS011;6819;50.886;4.332;2023-09-07T05:56:45;14.68;;;6.00;;
13493;SDS011;6819;50.886;4.332;2023-09-07T05:59:11;13.75;;;6.47;;
13493;SDS011;6819;50.886;4.332;2023-09-07T06:01:38;10.50;;;6.03;;
13493;SDS011;6819;50.886;4.332;2023-09-07T06:04:04;12.70;;;5.72;;
13493;SDS011;6819;50.886;4.332;2023-09-07T06:06:31;12.55;;;6.50;;
13493;SDS011;6819;50.886;4.332;2023-09-07T06:08:57;12.82;;;5.57;;
13493;SDS011;6819;50.886;4.332;2023-09-07T06:11:25;14.07;;;6.05;;
13493;SDS011;6819;50.886;4.332;2023-09-07T06:13:51;15.32;;;6.30;;
13493;SDS011;6819;50.886;4.332;2023-09-07T06:16:17;19.17;;;6.72;;
13493;SDS011;6819;50.886;4.332;2023-09-07T06:18:44;11.85;;;5.60;;
13493;SDS011;6819;50.886;4.332;2023-09-07T06:21:10;16.92;;;5.57;;
13493;SDS011;6819;50.886;4.332;2023-09-07T06:23:36;13.88;;;6.20;;
13493;SDS011;6819;50.886;4.332;2023-09-07T06:26:02;20.52;;;7.07;;
13493;SDS011;6819;50.886;4.332;2023-09-07T06:28:28;10.38;;;5.85;;
13493;SDS011;6819;50.886;4.332;2023-09-07T06:30:54;17.85;;;6.90;;
13493;SDS011;6819;50.886;4.332;2023-09-07T06:33:20;11.38;;;6.78;;
13493;SDS011;6819;50.886;4.332;2023-09-07T06:35:46;11.95;;;6.07;;
13493;SDS011;6819;50.886;4.332;2023-09-07T06:38:12;16.20;;;6.55;;
13493;SDS011;6819;50.886;4.332;2023-09-07T06:40:38;16.77;;;6.43;;
13493;SDS011;6819;50.886;4.332;2023-09-07T06:43:04;18.27;;;6.57;;
13493;SDS011;6819;50.886;4.332;2023-09-07T06:45:36;16.08;;;7.15;;
13493;SDS011;6819;50.886;4.332;2023-09-07T06:48:03;12.82;;;5.95;;
13493;SDS011;6819;50.886;4.332;2023-09-07T06:50:30;11.80;;;6.30;;
13493;SDS011;6819;50.886;4.332;2023-09-07T06:52:56;17.80;;;6.20;;
13493;SDS011;6819;50.886;4.332;2023-09-07T06:55:22;12.88;;;6.18;;
13493;SDS011;6819;50.886;4.332;2023-09-07T06:57:48;12.88;;;6.20;;
13493;SDS011;6819;50.886;4.332;2023-09-07T07:00:14;16.10;;;6.90;;
13493;SDS011;6819;50.886;4.332;2023-09-07T07:02:40;10.00;;;5.75;;
13493;SDS011;6819;50.886;4.332;2023-09-07T07:05:06;11.55;;;6.75;;
13493;SDS011;6819;50.886;4.332;2023-09-07T07:07:33;13.73;;;6.55;;
13493;SDS011;6819;50.886;4.332;2023-09-07T07:09:59;13.15;;;5.53;;
13493;SDS011;6819;50.886;4.332;2023-09-07T07:12:25;11.32;;;6.18;;
13493;SDS011;6819;50.886;4.332;2023-09-07T07:14:51;10.07;;;6.60;;
13493;SDS011;6819;50.886;4.332;2023-09-07T07:17:18;19.55;;;7.05;;
13493;SDS011;6819;50.886;4.332;2023-09-07T07:19:44;13.00;;;5.57;;
13493;SDS011;6819;50.886;4.332;2023-09-07T07:22:10;18.88;;;6.25;;
13493;SDS011;6819;50.886;4.332;2023-09-07T07:24:36;12.35;;;5.32;;
13493;SDS011;6819;50.886;4.332;2023-09-07T07:27:02;11.57;;;5.80;;
13493;SDS011;6819;50.886;4.332;2023-09-07T07:29:28;11.90;;;6.15;;
13493;SDS011;6819;50.886;4.332;2023-09-07T07:31:54;9.05;;;5.45;;
13493;SDS011;6819;50.886;4.332;2023-09-07T07:34:20;12.82;;;5.25;;
13493;SDS011;6819;50.886;4.332;2023-09-07T07:36:46;10.48;;;5.80;;
13493;SDS011;6819;50.886;4.332;2023-09-07T07:39:12;7.32;;;4.53;;
13493;SDS011;6819;50.886;4.332;2023-09-07T07:41:38;7.65;;;4.88;;
13493;SDS011;6819;50.886;4.332;2023-09-07T07:44:05;9.32;;;5.10;;
13493;SDS011;6819;50.886;4.332;2023-09-07T07:46:31;9.50;;;4.60;;
13493;SDS011;6819;50.886;4.332;2023-09-07T07:48:57;9.63;;;4.88;;
13493;SDS011;6819;50.886;4.332;2023-09-07T07:51:23;7.63;;;4.95;;
13493;SDS011;6819;50.886;4.332;2023-09-07T07:53:49;8.15;;;4.90;;
13493;SDS011;6819;50.886;4.332;2023-09-07T07:56:15;13.95;;;5.30;;
13493;SDS011;6819;50.886;4.332;2023-09-07T07:58:42;7.63;;;4.68;;
13493;SDS011;6819;50.886;4.332;2023-09-07T08:01:17;6.57;;;4.13;;
13493;SDS011;6819;50.886;4.332;2023-09-07T08:03:45;7.97;;;4.53;;
13493;SDS011;6819;50.886;4.332;2023-09-07T08:06:11;8.15;;;4.03;;
13493;SDS011;6819;50.886;4.332;2023-09-07T08:08:38;6.15;;;4.22;;
13493;SDS011;6819;50.886;4.332;2023-09-07T08:11:04;5.95;;;4.45;;
13493;SDS011;6819;50.886;4.332;2023-09-07T08:13:34;7.60;;;4.68;;
13493;SDS011;6819;50.886;4.332;2023-09-07T08:16:00;6.68;;;4.53;;
13493;SDS011;6819;50.886;4.332;2023-09-07T08:18:27;14.63;;;4.93;;
13493;SDS011;6819;50.886;4.332;2023-09-07T08:20:53;5.72;;;4.10;;
13493;SDS011;6819;50.886;4.332;2023-09-07T08:23:20;5.97;;;4.10;;
13493;SDS011;6819;50.886;4.332;2023-09-07T08:25:48;8.15;;;4.55;;
13493;SDS011;6819;50.886;4.332;2023-09-07T08:28:14;7.60;;;4.13;;
13493;SDS011;6819;50.886;4.332;2023-09-07T08:30:42;6.70;;;4.07;;
13493;SDS011;6819;50.886;4.332;2023-09-07T08:33:08;5.82;;;4.20;;
13493;SDS011;6819;50.886;4.332;2023-09-07T08:35:35;7.65;;;3.90;;
13493;SDS011;6819;50.886;4.332;2023-09-07T08:38:02;6.55;;;3.75;;
13493;SDS011;6819;50.886;4.332;2023-09-07T08:40:33;7.03;;;4.20;;
13493;SDS011;6819;50.886;4.332;2023-09-07T08:43:02;6.72;;;3.97;;
13493;SDS011;6819;50.886;4.332;2023-09-07T08:45:29;7.80;;;4.05;;
13493;SDS011;6819;50.886;4.332;2023-09-07T08:47:57;6.88;;;4.15;;
13493;SDS011;6819;50.886;4.332;2023-09-07T08:50:23;6.88;;;3.53;;
13493;SDS011;6819;50.886;4.332;2023-09-07T08:52:50;6.88;;;4.13;;
13493;SDS011;6819;50.886;4.332;2023-09-07T08:55:17;9.55;;;3.92;;
13493;SDS011;6819;50.886;4.332;2023-09-07T08:57:43;8.02;;;4.28;;
13493;SDS011;6819;50.886;4.332;2023-09-07T09:00:10;7.35;;;3.53;;
13493;SDS011;6819;50.886;4.332;2023-09-07T09:02:41;9.70;;;3.92;;
13493;SDS011;6819;50.886;4.332;2023-09-07T09:05:08;9.20;;;3.83;;
13493;SDS011;6819;50.886;4.332;2023-09-07T09:07:36;8.40;;;3.65;;
13493;SDS011;6819;50.886;4.332;2023-09-07T09:10:06;4.53;;;3.67;;
13493;SDS011;6819;50.886;4.332;2023-09-07T09:12:32;7.57;;;3.60;;
13493;SDS011;6819;50.886;4.332;2023-09-07T09:14:59;5.32;;;3.97;;
13493;SDS011;6819;50.886;4.332;2023-09-07T09:17:28;7.88;;;3.92;;
13493;SDS011;6819;50.886;4.332;2023-09-07T09:19:55;5.05;;;3.50;;
13493;SDS011;6819;50.886;4.332;2023-09-07T09:22:21;5.57;;;4.10;;
13493;SDS011;6819;50.886;4.332;2023-09-07T09:24:47;6.95;;;3.70;;
13493;SDS011;6819;50.886;4.332;2023-09-07T09:27:13;5.90;;;3.58;;
13493;SDS011;6819;50.886;4.332;2023-09-07T09:29:39;7.13;;;3.70;;
13493;SDS011;6819;50.886;4.332;2023-09-07T09:32:06;5.22;;;3.67;;
13493;SDS011;6819;50.886;4.332;2023-09-07T09:34:35;5.20;;;4.20;;
13493;SDS011;6819;50.886;4.332;2023-09-07T09:37:02;6.43;;;3.40;;
13493;SDS011;6819;50.886;4.332;2023-09-07T09:39:31;5.47;;;3.50;;
13493;SDS011;6819;50.886;4.332;2023-09-07T09:41:57;4.90;;;3.47;;
13493;SDS011;6819;50.886;4.332;2023-09-07T09:44:24;6.25;;;3.60;;
13493;SDS011;6819;50.886;4.332;2023-09-07T09:46:51;8.98;;;3.70;;
13493;SDS011;6819;50.886;4.332;2023-09-07T09:49:18;6.35;;;4.00;;
13493;SDS011;6819;50.886;4.332;2023-09-07T09:51:45;5.35;;;3.83;;
13493;SDS011;6819;50.886;4.332;2023-09-07T09:54:13;4.25;;;3.10;;
13493;SDS011;6819;50.886;4.332;2023-09-07T09:56:40;6.65;;;4.53;;
13493;SDS011;6819;50.886;4.332;2023-09-07T09:59:07;5.43;;;3.65;;
13493;SDS011;6819;50.886;4.332;2023-09-07T10:01:45;7.05;;;3.92;;
13493;SDS011;6819;50.886;4.332;2023-09-07T10:04:12;4.65;;;3.38;;
13493;SDS011;6819;50.886;4.332;2023-09-07T10:06:39;7.28;;;3.53;;
13493;SDS011;6819;50.886;4.332;2023-09-07T10:09:05;8.27;;;4.00;;
13493;SDS011;6819;50.886;4.332;2023-09-07T10:11:34;4.65;;;3.38;;
13493;SDS011;6819;50.886;4.332;2023-09-07T10:14:02;4.43;;;3.55;;
13493;SDS011;6819;50.886;4.332;2023-09-07T10:16:28;6.15;;;3.38;;
13493;SDS011;6819;50.886;4.332;2023-09-07T10:18:55;4.93;;;3.00;;
13493;SDS011;6819;50.886;4.332;2023-09-07T10:21:24;6.93;;;3.40;;
13493;SDS011;6819;50.886;4.332;2023-09-07T10:23:53;4.30;;;3.65;;
13493;SDS011;6819;50.886;4.332;2023-09-07T10:26:19;4.78;;;3.67;;
13493;SDS011;6819;50.886;4.332;2023-09-07T10:28:46;5.32;;;4.03;;
13493;SDS011;6819;50.886;4.332;2023-09-07T10:31:15;5.68;;;3.63;;
13493;SDS011;6819;50.886;4.332;2023-09-07T10:33:41;7.72;;;3.35;;
13493;SDS011;6819;50.886;4.332;2023-09-07T10:36:07;5.50;;;3.20;;
13493;SDS011;6819;50.886;4.332;2023-09-07T10:38:34;5.72;;;3.33;;
13493;SDS011;6819;50.886;4.332;2023-09-07T10:41:01;7.22;;;3.92;;
13493;SDS011;6819;50.886;4.332;2023-09-07T10:43:28;5.63;;;3.88;;
13493;SDS011;6819;50.886;4.332;2023-09-07T10:45:55;7.95;;;3.65;;
13493;SDS011;6819;50.886;4.332;2023-09-07T10:48:22;6.28;;;3.75;;
13493;SDS011;6819;50.886;4.332;2023-09-07T10:50:48;5.05;;;3.33;;
13493;SDS011;6819;50.886;4.332;2023-09-07T10:53:23;4.90;;;3.67;;
13493;SDS011;6819;50.886;4.332;2023-09-07T10:55:50;6.97;;;3.37;;
13493;SDS011;6819;50.886;4.332;2023-09-07T10:58:24;5.53;;;3.88;;
13493;SDS011;6819;50.886;4.332;2023-09-07T11:00:52;5.88;;;3.67;;
13493;SDS011;6819;50.886;4.332;2023-09-07T11:03:18;7.72;;;3.30;;
13493;SDS011;6819;50.886;4.332;2023-09-07T11:05:44;8.02;;;3.90;;
13493;SDS011;6819;50.886;4.332;2023-09-07T11:08:10;6.22;;;3.40;;
13493;SDS011;6819;50.886;4.332;2023-09-07T11:10:36;4.47;;;3.17;;
13493;SDS011;6819;50.886;4.332;2023-09-07T11:13:03;6.25;;;3.35;;
13493;SDS011;6819;50.886;4.332;2023-09-07T11:15:30;6.18;;;3.88;;
13493;SDS011;6819;50.886;4.332;2023-09-07T11:17:57;8.95;;;3.50;;
13493;SDS011;6819;50.886;4.332;2023-09-07T11:20:23;4.97;;;3.55;;
13493;SDS011;6819;50.886;4.332;2023-09-07T11:22:49;4.50;;;3.47;;
13493;SDS011;6819;50.886;4.332;2023-09-07T11:25:16;6.57;;;3.50;;
13493;SDS011;6819;50.886;4.332;2023-09-07T11:27:42;8.75;;;3.40;;
13493;SDS011;6819;50.886;4.332;2023-09-07T11:30:10;7.40;;;3.53;;
13493;SDS011;6819;50.886;4.332;2023-09-07T11:32:36;7.57;;;3.35;;
13493;SDS011;6819;50.886;4.332;2023-09-07T11:35:03;6.30;;;3.45;;
13493;SDS011;6819;50.886;4.332;2023-09-07T11:37:32;10.50;;;3.45;;
13493;SDS011;6819;50.886;4.332;2023-09-07T11:40:00;4.55;;;3.70;;
13493;SDS011;6819;50.886;4.332;2023-09-07T11:42:26;3.92;;;3.00;;
13493;SDS011;6819;50.886;4.332;2023-09-07T11:44:52;4.47;;;3.60;;
13493;SDS011;6819;50.886;4.332;2023-09-07T11:47:18;6.60;;;3.53;;
13493;SDS011;6819;50.886;4.332;2023-09-07T11:49:44;7.60;;;3.42;;
13493;SDS011;6819;50.886;4.332;2023-09-07T11:52:10;3.80;;;3.15;;
13493;SDS011;6819;50.886;4.332;2023-09-07T11:54:36;5.63;;;3.63;;
13493;SDS011;6819;50.886;4.332;2023-09-07T11:57:02;4.45;;;3.10;;
13493;SDS011;6819;50.886;4.332;2023-09-07T11:59:28;4.53;;;3.70;;
13493;SDS011;6819;50.886;4.332;2023-09-07T12:01:54;4.20;;;2.88;;
13493;SDS011;6819;50.886;4.332;2023-09-07T12:04:20;5.85;;;3.00;;
13493;SDS011;6819;50.886;4.332;2023-09-07T12:06:46;4.25;;;3.20;;
13493;SDS011;6819;50.886;4.332;2023-09-07T12:09:12;3.72;;;3.22;;
13493;SDS011;6819;50.886;4.332;2023-09-07T12:11:39;6.63;;;3.30;;
13493;SDS011;6819;50.886;4.332;2023-09-07T12:14:07;5.45;;;3.45;;
13493;SDS011;6819;50.886;4.332;2023-09-07T12:16:33;5.93;;;2.97;;
13493;SDS011;6819;50.886;4.332;2023-09-07T12:18:59;3.42;;;3.10;;
13493;SDS011;6819;50.886;4.332;2023-09-07T12:21:25;3.75;;;3.15;;
13493;SDS011;6819;50.886;4.332;2023-09-07T12:23:51;4.82;;;3.05;;
13493;SDS011;6819;50.886;4.332;2023-09-07T12:26:17;5.45;;;3.38;;
13493;SDS011;6819;50.886;4.332;2023-09-07T12:28:45;6.13;;;3.00;;
13493;SDS011;6819;50.886;4.332;2023-09-07T12:31:11;4.40;;;3.17;;
13493;SDS011;6819;50.886;4.332;2023-09-07T12:33:39;6.10;;;3.17;;
13493;SDS011;6819;50.886;4.332;2023-09-07T12:36:05;5.50;;;2.95;;
13493;SDS011;6819;50.886;4.332;2023-09-07T12:38:34;6.60;;;3.40;;
13493;SDS011;6819;50.886;4.332;2023-09-07T12:41:00;4.18;;;3.00;;
13493;SDS011;6819;50.886;4.332;2023-09-07T12:43:26;4.10;;;3.25;;
13493;SDS011;6819;50.886;4.332;2023-09-07T12:45:52;8.90;;;3.40;;
13493;SDS011;6819;50.886;4.332;2023-09-07T12:48:19;6.30;;;3.10;;
13493;SDS011;6819;50.886;4.332;2023-09-07T12:50:45;4.13;;;3.15;;
13493;SDS011;6819;50.886;4.332;2023-09-07T12:53:11;4.32;;;2.95;;
13493;SDS011;6819;50.886;4.332;2023-09-07T12:55:37;4.22;;;3.33;;
13493;SDS011;6819;50.886;4.332;2023-09-07T12:58:03;6.05;;;3.00;;
13493;SDS011;6819;50.886;4.332;2023-09-07T13:00:29;5.20;;;3.25;;
13493;SDS011;6819;50.886;4.332;2023-09-07T13:02:55;5.70;;;3.40;;
13493;SDS011;6819;50.886;4.332;2023-09-07T13:05:21;5.88;;;3.53;;
13493;SDS011;6819;50.886;4.332;2023-09-07T13:07:47;4.88;;;3.53;;
13493;SDS011;6819;50.886;4.332;2023-09-07T13:10:14;6.32;;;3.42;;
13493;SDS011;6819;50.886;4.332;2023-09-07T13:12:40;5.40;;;3.80;;
13493;SDS011;6819;50.886;4.332;2023-09-07T13:15:06;7.22;;;3.70;;
13493;SDS011;6819;50.886;4.332;2023-09-07T13:17:33;4.78;;;3.38;;
13493;SDS011;6819;50.886;4.332;2023-09-07T13:19:59;8.02;;;3.50;;
13493;SDS011;6819;50.886;4.332;2023-09-07T13:22:25;6.93;;;3.80;;
13493;SDS011;6819;50.886;4.332;2023-09-07T13:24:51;7.15;;;3.58;;
13493;SDS011;6819;50.886;4.332;2023-09-07T13:27:17;5.18;;;4.20;;
13493;SDS011;6819;50.886;4.332;2023-09-07T13:29:43;8.35;;;3.50;;
13493;SDS011;6819;50.886;4.332;2023-09-07T13:32:09;5.90;;;3.83;;
13493;SDS011;6819;50.886;4.332;2023-09-07T13:34:35;4.10;;;3.50;;
13493;SDS011;6819;50.886;4.332;2023-09-07T13:37:01;3.50;;;2.97;;
13493;SDS011;6819;50.886;4.332;2023-09-07T13:39:27;5.45;;;3.42;;
13493;SDS011;6819;50.886;4.332;2023-09-07T13:41:53;4.68;;;3.42;;
13493;SDS011;6819;50.886;4.332;2023-09-07T13:44:19;4.38;;;3.40;;
13493;SDS011;6819;50.886;4.332;2023-09-07T13:46:45;6.78;;;3.53;;
13493;SDS011;6819;50.886;4.332;2023-09-07T13:49:12;11.80;;;4.00;;
13493;SDS011;6819;50.886;4.332;2023-09-07T13:51:39;5.60;;;3.65;;
13493;SDS011;6819;50.886;4.332;2023-09-07T13:54:05;5.50;;;3.53;;
13493;SDS011;6819;50.886;4.332;2023-09-07T13:56:32;4.78;;;3.47;;
13493;SDS011;6819;50.886;4.332;2023-09-07T13:58:58;5.95;;;3.67;;
13493;SDS011;6819;50.886;4.332;2023-09-07T14:01:24;4.28;;;3.30;;
13493;SDS011;6819;50.886;4.332;2023-09-07T14:03:51;5.63;;;3.90;;
13493;SDS011;6819;50.886;4.332;2023-09-07T14:06:17;4.85;;;3.97;;
13493;SDS011;6819;50.886;4.332;2023-09-07T14:08:45;5.97;;;3.60;;
13493;SDS011;6819;50.886;4.332;2023-09-07T14:11:13;4.72;;;3.33;;
13493;SDS011;6819;50.886;4.332;2023-09-07T14:13:39;5.47;;;3.58;;
13493;SDS011;6819;50.886;4.332;2023-09-07T14:16:05;3.78;;;3.30;;
13493;SDS011;6819;50.886;4.332;2023-09-07T14:18:32;6.18;;;3.70;;
13493;SDS011;6819;50.886;4.332;2023-09-07T14:20:58;6.93;;;3.55;;
13493;SDS011;6819;50.886;4.332;2023-09-07T14:23:26;5.72;;;3.65;;
13493;SDS011;6819;50.886;4.332;2023-09-07T14:25:52;5.07;;;3.30;;
13493;SDS011;6819;50.886;4.332;2023-09-07T14:28:18;5.68;;;3.25;;
13493;SDS011;6819;50.886;4.332;2023-09-07T14:30:44;5.00;;;3.60;;
13493;SDS011;6819;50.886;4.332;2023-09-07T14:33:10;7.90;;;3.70;;
13493;SDS011;6819;50.886;4.332;2023-09-07T14:35:36;13.35;;;4.03;;
13493;SDS011;6819;50.886;4.332;2023-09-07T14:38:02;4.80;;;3.60;;
13493;SDS011;6819;50.886;4.332;2023-09-07T14:40:28;4.57;;;3.95;;
13493;SDS011;6819;50.886;4.332;2023-09-07T14:42:54;4.80;;;3.53;;
13493;SDS011;6819;50.886;4.332;2023-09-07T14:45:23;4.38;;;3.47;;
13493;SDS011;6819;50.886;4.332;2023-09-07T14:47:50;7.40;;;3.47;;
13493;SDS011;6819;50.886;4.332;2023-09-07T14:50:17;3.33;;;3.00;;
13493;SDS011;6819;50.886;4.332;2023-09-07T14:52:43;6.13;;;3.38;;
13493;SDS011;6819;50.886;4.332;2023-09-07T14:55:12;8.05;;;3.30;;